Airfield :
LOGIN :

Register | Disclaimer

   EN    FR    IT 

 










Legend :    VFR   Marginal VFR   IFR   Intensive IFR   Very Intensive IFR
Visi :
Ceiling :
>= 8 km
>= 3000ft
5 to 8 km
1000 to 3000 ft
1500m to 5 km
500 to 1000 ft
800 to 1500m
200 to 500 ft
< 800m
< 200 ft
Symbols :   Thunderstorms  Fog  Heavy snow  Heavy precipitations  Wind > 20 kt
SIGMETs :     Misc.  Thunderstorms  Icing  Turbulence  Mountain Waves  Volcanic Ashes






- Airport Elevation : 163 ft
- IATA code : IST


LTBA - Ataturk

CURRENT METAR :
  • 291320Z 23008KT 200V260 9999 SCT035 SCT100 19/11 Q1015 NOSIG RMK RWY17L 22011KT RWY05 26009KT 230V290 RWY23 25011KT

EXPIRED METARs :
  • 291250Z 24007KT 200V270 9999 SCT035 SCT100 18/11 Q1015 NOSIG RMK RWY17L 21010KT 190V250 RWY05 25007KT RWY23 25009KT
  • 291220Z 25007KT 9999 SCT035 SCT100 18/10 Q1015 NOSIG RMK RWY17L 24008KT RWY05 26007KT 230V300 RWY23 24008KT
  • 291150Z 25008KT 200V270 9999 SCT035 BKN100 18/12 Q1015 NOSIG RMK RWY17L 21008KT 170V250 RWY05 26007KT RWY23 26009KT
  • 291120Z 21007KT 180V260 9999 SCT035 BKN100 18/13 Q1015 NOSIG RMK RWY17L 21010KT 180V250 RWY05 24008KT RWY23 23010KT
  • 291050Z 22007KT 180V250 9999 SCT035 BKN100 18/12 Q1016 NOSIG RMK RWY17L 21009KT 180V240 RWY05 25007KT RWY23 24010KT

TAF TAF LTBA
Valid from the 29 at 12:00 until the 30 at 18:00 UTC


291040Z 2912/3018 24009KT 9999 SCT035 BKN090
TEMPO 2912/2915 -TSRA FEW022CB BKN030
BECMG 2916/2919 CAVOK
BECMG 2923/3002 SCT035 SCT080
PROB30
TEMPO 3008/3011 -TSRA FEW022CB SCT080
BECMG 3012/3015 CAVOK



MET'MAP, your aeronautical weather chart ! - Copyright ORBIFLY December 2007 - Disclaimer

ORBIFLY MET'MAP TEAM :

Programming & Development : Alexandra Zaïnal
Concept & original design : Baudouin d'Aumeries
Assistance for programming : Marc-Olivier Méhu
Technical & hardware support : Manuel Goepfert

Contact : metmap@orbifly.com




SOURCES & CREDITS :

   NOAA